sensor_id;sensor_type;location;lat;lon;timestamp;P1;durP1;ratioP1;P2;durP2;ratioP2
69569;SDS011;56781;42.292;23.146;2022-12-29T00:00:16;36.60;;;16.40;;
69569;SDS011;56781;42.292;23.146;2022-12-29T00:02:43;35.65;;;16.42;;
69569;SDS011;56781;42.292;23.146;2022-12-29T00:05:11;45.75;;;18.52;;
69569;SDS011;56781;42.292;23.146;2022-12-29T00:07:38;86.85;;;30.25;;
69569;SDS011;56781;42.292;23.146;2022-12-29T00:10:05;115.67;;;36.93;;
69569;SDS011;56781;42.292;23.146;2022-12-29T00:12:33;107.85;;;36.92;;
69569;SDS011;56781;42.292;23.146;2022-12-29T00:15:25;100.53;;;31.88;;
69569;SDS011;56781;42.292;23.146;2022-12-29T00:18:11;74.00;;;26.58;;
69569;SDS011;56781;42.292;23.146;2022-12-29T00:20:39;59.58;;;22.70;;
69569;SDS011;56781;42.292;23.146;2022-12-29T00:23:24;51.57;;;19.83;;
69569;SDS011;56781;42.292;23.146;2022-12-29T00:26:12;46.53;;;19.05;;
69569;SDS011;56781;42.292;23.146;2022-12-29T00:28:59;53.78;;;19.98;;
69569;SDS011;56781;42.292;23.146;2022-12-29T00:31:45;45.28;;;17.90;;
69569;SDS011;56781;42.292;23.146;2022-12-29T00:34:30;45.75;;;18.65;;
69569;SDS011;56781;42.292;23.146;2022-12-29T00:37:16;49.17;;;18.60;;
69569;SDS011;56781;42.292;23.146;2022-12-29T00:40:04;54.05;;;22.15;;
69569;SDS011;56781;42.292;23.146;2022-12-29T00:42:49;57.58;;;23.30;;
69569;SDS011;56781;42.292;23.146;2022-12-29T00:45:35;65.05;;;24.85;;
69569;SDS011;56781;42.292;23.146;2022-12-29T00:48:02;68.00;;;26.42;;
69569;SDS011;56781;42.292;23.146;2022-12-29T00:50:29;57.87;;;21.47;;
69569;SDS011;56781;42.292;23.146;2022-12-29T00:52:56;60.45;;;22.90;;
69569;SDS011;56781;42.292;23.146;2022-12-29T00:55:23;63.63;;;23.73;;
69569;SDS011;56781;42.292;23.146;2022-12-29T00:57:50;66.55;;;23.10;;
69569;SDS011;56781;42.292;23.146;2022-12-29T01:00:18;64.53;;;22.65;;
69569;SDS011;56781;42.292;23.146;2022-12-29T01:02:45;71.07;;;23.87;;
69569;SDS011;56781;42.292;23.146;2022-12-29T01:05:12;75.68;;;26.55;;
69569;SDS011;56781;42.292;23.146;2022-12-29T01:07:39;75.88;;;26.70;;
69569;SDS011;56781;42.292;23.146;2022-12-29T01:10:06;73.63;;;26.40;;
69569;SDS011;56781;42.292;23.146;2022-12-29T01:12:36;91.20;;;30.20;;
69569;SDS011;56781;42.292;23.146;2022-12-29T01:15:08;74.60;;;25.60;;
69569;SDS011;56781;42.292;23.146;2022-12-29T01:17:37;77.18;;;24.85;;
69569;SDS011;56781;42.292;23.146;2022-12-29T01:20:04;57.75;;;21.58;;
69569;SDS011;56781;42.292;23.146;2022-12-29T01:22:32;49.47;;;20.92;;
69569;SDS011;56781;42.292;23.146;2022-12-29T01:24:59;46.75;;;18.65;;
69569;SDS011;56781;42.292;23.146;2022-12-29T01:27:26;38.30;;;17.33;;
69569;SDS011;56781;42.292;23.146;2022-12-29T01:29:53;40.35;;;17.52;;
69569;SDS011;56781;42.292;23.146;2022-12-29T01:32:21;51.53;;;20.15;;
69569;SDS011;56781;42.292;23.146;2022-12-29T01:34:48;51.50;;;20.27;;
69569;SDS011;56781;42.292;23.146;2022-12-29T01:37:15;45.20;;;19.50;;
69569;SDS011;56781;42.292;23.146;2022-12-29T01:39:43;48.50;;;19.87;;
69569;SDS011;56781;42.292;23.146;2022-12-29T01:42:14;48.28;;;19.70;;
69569;SDS011;56781;42.292;23.146;2022-12-29T01:44:55;47.08;;;19.63;;
69569;SDS011;56781;42.292;23.146;2022-12-29T01:50:15;49.08;;;19.58;;
69569;SDS011;56781;42.292;23.146;2022-12-29T01:53:22;41.47;;;16.00;;
69569;SDS011;56781;42.292;23.146;2022-12-29T01:55:55;39.25;;;18.05;;
69569;SDS011;56781;42.292;23.146;2022-12-29T01:58:29;53.88;;;18.65;;
69569;SDS011;56781;42.292;23.146;2022-12-29T02:00:59;41.55;;;17.63;;
69569;SDS011;56781;42.292;23.146;2022-12-29T02:03:26;44.60;;;17.40;;
69569;SDS011;56781;42.292;23.146;2022-12-29T02:05:56;42.93;;;17.33;;
69569;SDS011;56781;42.292;23.146;2022-12-29T02:08:30;45.35;;;15.95;;
69569;SDS011;56781;42.292;23.146;2022-12-29T02:10:57;42.45;;;17.60;;
69569;SDS011;56781;42.292;23.146;2022-12-29T02:13:27;43.58;;;16.25;;
69569;SDS011;56781;42.292;23.146;2022-12-29T02:24:14;43.42;;;15.02;;
69569;SDS011;56781;42.292;23.146;2022-12-29T02:38:00;31.88;;;14.63;;
69569;SDS011;56781;42.292;23.146;2022-12-29T02:46:27;28.83;;;12.83;;
69569;SDS011;56781;42.292;23.146;2022-12-29T02:54:29;33.20;;;13.98;;
69569;SDS011;56781;42.292;23.146;2022-12-29T02:57:26;27.67;;;12.73;;
69569;SDS011;56781;42.292;23.146;2022-12-29T03:00:17;43.23;;;15.73;;
69569;SDS011;56781;42.292;23.146;2022-12-29T03:02:57;76.93;;;20.42;;
69569;SDS011;56781;42.292;23.146;2022-12-29T03:11:01;46.92;;;17.23;;
69569;SDS011;56781;42.292;23.146;2022-12-29T03:13:56;67.67;;;19.57;;
69569;SDS011;56781;42.292;23.146;2022-12-29T03:17:02;47.78;;;15.82;;
69569;SDS011;56781;42.292;23.146;2022-12-29T03:19:37;41.03;;;15.82;;
69569;SDS011;56781;42.292;23.146;2022-12-29T03:22:13;35.60;;;14.90;;
69569;SDS011;56781;42.292;23.146;2022-12-29T03:24:58;36.20;;;14.00;;
69569;SDS011;56781;42.292;23.146;2022-12-29T03:27:38;32.20;;;13.90;;
69569;SDS011;56781;42.292;23.146;2022-12-29T03:30:10;48.83;;;19.63;;
69569;SDS011;56781;42.292;23.146;2022-12-29T03:32:43;52.53;;;22.45;;
69569;SDS011;56781;42.292;23.146;2022-12-29T03:35:14;44.08;;;19.40;;
69569;SDS011;56781;42.292;23.146;2022-12-29T03:37:50;44.58;;;18.75;;
69569;SDS011;56781;42.292;23.146;2022-12-29T03:40:27;39.73;;;16.97;;
69569;SDS011;56781;42.292;23.146;2022-12-29T03:42:57;37.75;;;17.35;;
69569;SDS011;56781;42.292;23.146;2022-12-29T03:45:25;37.10;;;16.13;;
69569;SDS011;56781;42.292;23.146;2022-12-29T03:47:53;39.58;;;17.25;;
69569;SDS011;56781;42.292;23.146;2022-12-29T03:50:20;39.20;;;16.23;;
69569;SDS011;56781;42.292;23.146;2022-12-29T03:52:47;36.90;;;15.83;;
69569;SDS011;56781;42.292;23.146;2022-12-29T03:55:14;37.17;;;17.50;;
69569;SDS011;56781;42.292;23.146;2022-12-29T03:57:43;34.67;;;16.20;;
69569;SDS011;56781;42.292;23.146;2022-12-29T04:00:10;37.92;;;16.52;;
69569;SDS011;56781;42.292;23.146;2022-12-29T04:02:38;37.28;;;16.98;;
69569;SDS011;56781;42.292;23.146;2022-12-29T04:05:06;41.47;;;17.87;;
69569;SDS011;56781;42.292;23.146;2022-12-29T04:07:33;38.55;;;16.70;;
69569;SDS011;56781;42.292;23.146;2022-12-29T04:10:00;40.17;;;17.00;;
69569;SDS011;56781;42.292;23.146;2022-12-29T04:12:27;39.60;;;17.40;;
69569;SDS011;56781;42.292;23.146;2022-12-29T04:14:54;44.88;;;19.00;;
69569;SDS011;56781;42.292;23.146;2022-12-29T04:17:21;44.00;;;18.63;;
69569;SDS011;56781;42.292;23.146;2022-12-29T04:19:48;43.50;;;17.95;;
69569;SDS011;56781;42.292;23.146;2022-12-29T04:22:15;36.85;;;16.50;;
69569;SDS011;56781;42.292;23.146;2022-12-29T04:24:43;38.17;;;15.63;;
69569;SDS011;56781;42.292;23.146;2022-12-29T04:27:10;33.85;;;15.05;;
69569;SDS011;56781;42.292;23.146;2022-12-29T04:29:37;45.67;;;17.17;;
69569;SDS011;56781;42.292;23.146;2022-12-29T04:32:04;51.17;;;20.42;;
69569;SDS011;56781;42.292;23.146;2022-12-29T04:34:32;38.45;;;17.10;;
69569;SDS011;56781;42.292;23.146;2022-12-29T04:36:59;39.50;;;16.25;;
69569;SDS011;56781;42.292;23.146;2022-12-29T04:39:26;38.47;;;15.60;;
69569;SDS011;56781;42.292;23.146;2022-12-29T04:41:54;62.13;;;21.63;;
69569;SDS011;56781;42.292;23.146;2022-12-29T04:44:21;58.15;;;20.27;;
69569;SDS011;56781;42.292;23.146;2022-12-29T04:46:48;40.63;;;16.73;;
69569;SDS011;56781;42.292;23.146;2022-12-29T04:49:15;39.33;;;16.77;;
69569;SDS011;56781;42.292;23.146;2022-12-29T04:51:43;45.05;;;24.00;;
69569;SDS011;56781;42.292;23.146;2022-12-29T04:54:10;38.40;;;18.73;;
69569;SDS011;56781;42.292;23.146;2022-12-29T04:56:37;33.60;;;14.88;;
69569;SDS011;56781;42.292;23.146;2022-12-29T04:59:04;42.72;;;18.45;;
69569;SDS011;56781;42.292;23.146;2022-12-29T05:01:32;44.60;;;18.95;;
69569;SDS011;56781;42.292;23.146;2022-12-29T05:04:00;51.42;;;23.67;;
69569;SDS011;56781;42.292;23.146;2022-12-29T05:06:27;36.83;;;17.10;;
69569;SDS011;56781;42.292;23.146;2022-12-29T05:08:54;32.60;;;14.45;;
69569;SDS011;56781;42.292;23.146;2022-12-29T05:11:21;28.63;;;13.02;;
69569;SDS011;56781;42.292;23.146;2022-12-29T05:13:49;30.50;;;14.70;;
69569;SDS011;56781;42.292;23.146;2022-12-29T05:16:16;36.17;;;15.25;;
69569;SDS011;56781;42.292;23.146;2022-12-29T05:18:43;34.87;;;14.03;;
69569;SDS011;56781;42.292;23.146;2022-12-29T05:21:10;44.58;;;16.15;;
69569;SDS011;56781;42.292;23.146;2022-12-29T05:23:38;53.83;;;21.90;;
69569;SDS011;56781;42.292;23.146;2022-12-29T05:26:05;63.00;;;20.45;;
69569;SDS011;56781;42.292;23.146;2022-12-29T05:28:33;58.42;;;20.90;;
69569;SDS011;56781;42.292;23.146;2022-12-29T05:31:00;44.87;;;18.50;;
69569;SDS011;56781;42.292;23.146;2022-12-29T05:33:27;36.00;;;16.00;;
69569;SDS011;56781;42.292;23.146;2022-12-29T05:35:54;43.55;;;18.70;;
69569;SDS011;56781;42.292;23.146;2022-12-29T05:38:21;39.20;;;18.15;;
69569;SDS011;56781;42.292;23.146;2022-12-29T05:40:48;37.05;;;16.17;;
69569;SDS011;56781;42.292;23.146;2022-12-29T05:43:15;34.10;;;15.83;;
69569;SDS011;56781;42.292;23.146;2022-12-29T05:45:43;34.88;;;15.70;;
69569;SDS011;56781;42.292;23.146;2022-12-29T05:48:11;37.13;;;16.20;;
69569;SDS011;56781;42.292;23.146;2022-12-29T05:50:38;34.95;;;14.18;;
69569;SDS011;56781;42.292;23.146;2022-12-29T05:53:05;34.90;;;14.10;;
69569;SDS011;56781;42.292;23.146;2022-12-29T05:55:32;32.50;;;14.47;;
69569;SDS011;56781;42.292;23.146;2022-12-29T05:58:00;32.95;;;14.50;;
69569;SDS011;56781;42.292;23.146;2022-12-29T06:00:27;33.90;;;14.20;;
69569;SDS011;56781;42.292;23.146;2022-12-29T06:02:54;34.20;;;14.57;;
69569;SDS011;56781;42.292;23.146;2022-12-29T06:05:21;32.58;;;15.13;;
69569;SDS011;56781;42.292;23.146;2022-12-29T06:07:49;32.07;;;14.43;;
69569;SDS011;56781;42.292;23.146;2022-12-29T06:10:16;35.45;;;15.00;;
69569;SDS011;56781;42.292;23.146;2022-12-29T06:12:43;34.35;;;14.85;;
69569;SDS011;56781;42.292;23.146;2022-12-29T06:15:10;34.65;;;15.02;;
69569;SDS011;56781;42.292;23.146;2022-12-29T06:17:37;35.85;;;15.75;;
69569;SDS011;56781;42.292;23.146;2022-12-29T06:20:05;44.63;;;19.27;;
69569;SDS011;56781;42.292;23.146;2022-12-29T06:22:33;54.22;;;23.65;;
69569;SDS011;56781;42.292;23.146;2022-12-29T06:25:00;59.63;;;26.95;;
69569;SDS011;56781;42.292;23.146;2022-12-29T06:27:30;60.65;;;26.60;;
69569;SDS011;56781;42.292;23.146;2022-12-29T06:29:59;58.58;;;25.83;;
69569;SDS011;56781;42.292;23.146;2022-12-29T06:32:26;57.83;;;25.23;;
69569;SDS011;56781;42.292;23.146;2022-12-29T06:34:53;56.05;;;24.27;;
69569;SDS011;56781;42.292;23.146;2022-12-29T06:37:20;52.10;;;24.38;;
69569;SDS011;56781;42.292;23.146;2022-12-29T06:39:47;53.85;;;24.58;;
69569;SDS011;56781;42.292;23.146;2022-12-29T06:42:14;53.30;;;22.90;;
69569;SDS011;56781;42.292;23.146;2022-12-29T06:44:42;48.83;;;21.83;;
69569;SDS011;56781;42.292;23.146;2022-12-29T06:47:09;44.30;;;17.27;;
69569;SDS011;56781;42.292;23.146;2022-12-29T06:49:37;43.97;;;19.75;;
69569;SDS011;56781;42.292;23.146;2022-12-29T06:52:04;45.95;;;20.98;;
69569;SDS011;56781;42.292;23.146;2022-12-29T06:54:38;49.35;;;23.20;;
69569;SDS011;56781;42.292;23.146;2022-12-29T06:57:05;46.60;;;21.93;;
69569;SDS011;56781;42.292;23.146;2022-12-29T06:59:32;52.00;;;23.33;;
69569;SDS011;56781;42.292;23.146;2022-12-29T07:01:59;73.50;;;25.10;;
69569;SDS011;56781;42.292;23.146;2022-12-29T07:04:28;43.88;;;18.83;;
69569;SDS011;56781;42.292;23.146;2022-12-29T07:06:56;35.13;;;15.75;;
69569;SDS011;56781;42.292;23.146;2022-12-29T07:09:23;34.97;;;17.63;;
69569;SDS011;56781;42.292;23.146;2022-12-29T07:11:50;32.13;;;14.50;;
69569;SDS011;56781;42.292;23.146;2022-12-29T07:14:17;31.88;;;14.75;;
69569;SDS011;56781;42.292;23.146;2022-12-29T07:16:44;25.65;;;13.05;;
69569;SDS011;56781;42.292;23.146;2022-12-29T07:19:11;30.63;;;15.00;;
69569;SDS011;56781;42.292;23.146;2022-12-29T07:21:39;36.17;;;18.07;;
69569;SDS011;56781;42.292;23.146;2022-12-29T07:24:12;31.77;;;14.80;;
69569;SDS011;56781;42.292;23.146;2022-12-29T07:26:39;24.65;;;12.27;;
69569;SDS011;56781;42.292;23.146;2022-12-29T07:29:06;25.63;;;13.57;;
69569;SDS011;56781;42.292;23.146;2022-12-29T07:31:33;31.10;;;15.20;;
69569;SDS011;56781;42.292;23.146;2022-12-29T07:34:00;27.80;;;13.93;;
69569;SDS011;56781;42.292;23.146;2022-12-29T07:36:27;34.97;;;15.57;;
69569;SDS011;56781;42.292;23.146;2022-12-29T07:39:00;33.00;;;16.80;;
69569;SDS011;56781;42.292;23.146;2022-12-29T07:41:28;32.55;;;15.57;;
69569;SDS011;56781;42.292;23.146;2022-12-29T07:43:55;28.90;;;14.55;;
69569;SDS011;56781;42.292;23.146;2022-12-29T07:46:22;31.17;;;15.03;;
69569;SDS011;56781;42.292;23.146;2022-12-29T07:49:09;34.33;;;15.38;;
69569;SDS011;56781;42.292;23.146;2022-12-29T07:51:36;33.33;;;15.45;;
69569;SDS011;56781;42.292;23.146;2022-12-29T07:54:03;34.20;;;16.20;;
69569;SDS011;56781;42.292;23.146;2022-12-29T07:56:30;33.55;;;17.05;;
69569;SDS011;56781;42.292;23.146;2022-12-29T07:58:58;37.83;;;19.27;;
69569;SDS011;56781;42.292;23.146;2022-12-29T08:01:25;34.08;;;15.23;;
69569;SDS011;56781;42.292;23.146;2022-12-29T08:03:52;32.97;;;15.27;;
69569;SDS011;56781;42.292;23.146;2022-12-29T08:06:23;29.42;;;14.50;;
69569;SDS011;56781;42.292;23.146;2022-12-29T08:08:50;27.60;;;14.60;;
69569;SDS011;56781;42.292;23.146;2022-12-29T08:11:17;25.43;;;12.27;;
69569;SDS011;56781;42.292;23.146;2022-12-29T08:13:44;23.48;;;11.75;;
69569;SDS011;56781;42.292;23.146;2022-12-29T08:16:11;25.88;;;12.77;;
69569;SDS011;56781;42.292;23.146;2022-12-29T08:18:38;37.08;;;15.95;;
69569;SDS011;56781;42.292;23.146;2022-12-29T08:21:05;26.08;;;13.50;;
69569;SDS011;56781;42.292;23.146;2022-12-29T08:23:32;32.10;;;15.38;;
69569;SDS011;56781;42.292;23.146;2022-12-29T08:26:00;20.75;;;12.02;;
69569;SDS011;56781;42.292;23.146;2022-12-29T08:28:28;21.00;;;11.57;;
69569;SDS011;56781;42.292;23.146;2022-12-29T08:30:59;22.02;;;12.50;;
69569;SDS011;56781;42.292;23.146;2022-12-29T08:33:28;26.48;;;13.70;;
69569;SDS011;56781;42.292;23.146;2022-12-29T08:36:03;20.93;;;11.20;;
69569;SDS011;56781;42.292;23.146;2022-12-29T08:38:31;21.90;;;11.85;;
69569;SDS011;56781;42.292;23.146;2022-12-29T08:40:59;20.65;;;12.15;;
69569;SDS011;56781;42.292;23.146;2022-12-29T08:43:29;21.77;;;12.48;;
69569;SDS011;56781;42.292;23.146;2022-12-29T08:45:59;23.23;;;11.93;;
69569;SDS011;56781;42.292;23.146;2022-12-29T08:48:27;23.35;;;12.13;;
69569;SDS011;56781;42.292;23.146;2022-12-29T08:50:54;18.17;;;10.38;;
69569;SDS011;56781;42.292;23.146;2022-12-29T08:53:21;19.52;;;11.13;;
69569;SDS011;56781;42.292;23.146;2022-12-29T08:55:57;19.80;;;10.52;;
69569;SDS011;56781;42.292;23.146;2022-12-29T08:58:30;19.90;;;11.70;;
69569;SDS011;56781;42.292;23.146;2022-12-29T09:00:58;95.77;;;33.27;;
69569;SDS011;56781;42.292;23.146;2022-12-29T09:03:26;24.20;;;12.18;;
69569;SDS011;56781;42.292;23.146;2022-12-29T09:06:14;21.67;;;11.57;;
69569;SDS011;56781;42.292;23.146;2022-12-29T09:08:43;36.72;;;18.98;;
69569;SDS011;56781;42.292;23.146;2022-12-29T09:11:12;36.75;;;16.13;;
69569;SDS011;56781;42.292;23.146;2022-12-29T09:13:44;24.57;;;12.80;;
69569;SDS011;56781;42.292;23.146;2022-12-29T09:16:12;23.98;;;12.40;;
69569;SDS011;56781;42.292;23.146;2022-12-29T09:18:39;21.42;;;11.30;;
69569;SDS011;56781;42.292;23.146;2022-12-29T09:21:06;20.73;;;10.75;;
69569;SDS011;56781;42.292;23.146;2022-12-29T09:23:34;18.95;;;9.93;;
69569;SDS011;56781;42.292;23.146;2022-12-29T09:26:01;18.10;;;9.33;;
69569;SDS011;56781;42.292;23.146;2022-12-29T09:28:29;20.90;;;11.10;;
69569;SDS011;56781;42.292;23.146;2022-12-29T09:30:57;21.80;;;11.27;;
69569;SDS011;56781;42.292;23.146;2022-12-29T09:33:25;22.02;;;11.27;;
69569;SDS011;56781;42.292;23.146;2022-12-29T09:35:54;20.45;;;10.57;;
69569;SDS011;56781;42.292;23.146;2022-12-29T09:38:24;24.23;;;11.63;;
69569;SDS011;56781;42.292;23.146;2022-12-29T09:40:54;22.15;;;11.27;;
69569;SDS011;56781;42.292;23.146;2022-12-29T09:46:29;26.42;;;14.65;;
69569;SDS011;56781;42.292;23.146;2022-12-29T09:49:22;24.13;;;10.50;;
69569;SDS011;56781;42.292;23.146;2022-12-29T09:51:57;23.73;;;11.87;;
69569;SDS011;56781;42.292;23.146;2022-12-29T10:00:14;22.95;;;9.95;;
69569;SDS011;56781;42.292;23.146;2022-12-29T10:03:32;19.55;;;9.80;;
69569;SDS011;56781;42.292;23.146;2022-12-29T10:06:04;19.73;;;10.27;;
69569;SDS011;56781;42.292;23.146;2022-12-29T10:08:42;20.23;;;10.32;;
69569;SDS011;56781;42.292;23.146;2022-12-29T10:11:28;22.75;;;10.85;;
69569;SDS011;56781;42.292;23.146;2022-12-29T10:17:15;26.35;;;12.60;;
69569;SDS011;56781;42.292;23.146;2022-12-29T10:23:22;21.73;;;11.20;;
69569;SDS011;56781;42.292;23.146;2022-12-29T10:25:43;19.52;;;10.82;;
69569;SDS011;56781;42.292;23.146;2022-12-29T10:28:21;20.35;;;9.80;;
69569;SDS011;56781;42.292;23.146;2022-12-29T10:30:51;22.58;;;10.52;;
69569;SDS011;56781;42.292;23.146;2022-12-29T10:33:22;22.33;;;11.77;;
69569;SDS011;56781;42.292;23.146;2022-12-29T10:35:57;21.38;;;11.13;;
69569;SDS011;56781;42.292;23.146;2022-12-29T10:38:35;20.95;;;13.70;;
69569;SDS011;56781;42.292;23.146;2022-12-29T10:41:15;22.45;;;13.07;;
69569;SDS011;56781;42.292;23.146;2022-12-29T10:43:51;22.95;;;12.93;;
69569;SDS011;56781;42.292;23.146;2022-12-29T10:46:28;33.67;;;15.03;;
69569;SDS011;56781;42.292;23.146;2022-12-29T10:48:59;20.02;;;10.48;;
69569;SDS011;56781;42.292;23.146;2022-12-29T10:51:30;27.02;;;15.75;;
69569;SDS011;56781;42.292;23.146;2022-12-29T10:54:08;21.05;;;10.90;;
69569;SDS011;56781;42.292;23.146;2022-12-29T10:56:56;22.25;;;11.35;;
69569;SDS011;56781;42.292;23.146;2022-12-29T10:59:33;22.57;;;11.60;;
69569;SDS011;56781;42.292;23.146;2022-12-29T11:07:21;19.10;;;10.70;;
69569;SDS011;56781;42.292;23.146;2022-12-29T11:09:53;19.55;;;10.75;;
69569;SDS011;56781;42.292;23.146;2022-12-29T11:12:22;19.63;;;9.87;;
69569;SDS011;56781;42.292;23.146;2022-12-29T11:17:45;17.83;;;9.70;;
69569;SDS011;56781;42.292;23.146;2022-12-29T11:22:53;24.35;;;11.43;;
69569;SDS011;56781;42.292;23.146;2022-12-29T11:25:20;19.23;;;10.70;;
69569;SDS011;56781;42.292;23.146;2022-12-29T11:28:02;23.42;;;10.82;;
69569;SDS011;56781;42.292;23.146;2022-12-29T11:30:40;20.85;;;11.15;;
69569;SDS011;56781;42.292;23.146;2022-12-29T11:33:08;22.63;;;11.70;;
69569;SDS011;56781;42.292;23.146;2022-12-29T11:35:40;28.02;;;11.73;;
69569;SDS011;56781;42.292;23.146;2022-12-29T11:38:18;19.98;;;10.18;;
69569;SDS011;56781;42.292;23.146;2022-12-29T11:40:48;21.23;;;10.98;;
69569;SDS011;56781;42.292;23.146;2022-12-29T11:43:49;19.10;;;11.02;;
69569;SDS011;56781;42.292;23.146;2022-12-29T11:46:18;20.58;;;11.35;;
69569;SDS011;56781;42.292;23.146;2022-12-29T11:48:50;21.75;;;10.82;;
69569;SDS011;56781;42.292;23.146;2022-12-29T11:51:25;22.10;;;11.50;;
69569;SDS011;56781;42.292;23.146;2022-12-29T11:53:57;18.38;;;8.82;;
69569;SDS011;56781;42.292;23.146;2022-12-29T11:56:33;15.77;;;8.57;;
69569;SDS011;56781;42.292;23.146;2022-12-29T12:01:54;16.75;;;9.25;;
69569;SDS011;56781;42.292;23.146;2022-12-29T12:04:24;22.47;;;11.70;;
69569;SDS011;56781;42.292;23.146;2022-12-29T12:09:36;19.23;;;9.55;;
69569;SDS011;56781;42.292;23.146;2022-12-29T12:12:18;15.95;;;9.30;;
69569;SDS011;56781;42.292;23.146;2022-12-29T12:14:55;19.48;;;10.23;;
69569;SDS011;56781;42.292;23.146;2022-12-29T12:19:57;14.55;;;8.15;;
69569;SDS011;56781;42.292;23.146;2022-12-29T12:22:30;17.80;;;9.95;;
69569;SDS011;56781;42.292;23.146;2022-12-29T12:28:08;33.45;;;15.23;;
69569;SDS011;56781;42.292;23.146;2022-12-29T12:30:43;37.35;;;15.55;;
69569;SDS011;56781;42.292;23.146;2022-12-29T12:33:25;29.80;;;15.77;;
69569;SDS011;56781;42.292;23.146;2022-12-29T12:41:35;18.50;;;9.40;;
69569;SDS011;56781;42.292;23.146;2022-12-29T12:44:18;22.80;;;11.47;;
69569;SDS011;56781;42.292;23.146;2022-12-29T12:49:40;21.05;;;9.35;;
69569;SDS011;56781;42.292;23.146;2022-12-29T12:52:40;18.33;;;8.77;;
69569;SDS011;56781;42.292;23.146;2022-12-29T12:58:02;22.87;;;11.07;;
69569;SDS011;56781;42.292;23.146;2022-12-29T13:03:29;21.70;;;10.40;;
69569;SDS011;56781;42.292;23.146;2022-12-29T13:06:22;17.65;;;8.77;;
69569;SDS011;56781;42.292;23.146;2022-12-29T13:11:46;21.87;;;10.27;;
69569;SDS011;56781;42.292;23.146;2022-12-29T13:14:52;22.67;;;11.38;;
69569;SDS011;56781;42.292;23.146;2022-12-29T13:22:58;18.10;;;9.48;;
69569;SDS011;56781;42.292;23.146;2022-12-29T13:31:16;40.53;;;16.30;;
69569;SDS011;56781;42.292;23.146;2022-12-29T13:36:44;21.42;;;11.23;;
69569;SDS011;56781;42.292;23.146;2022-12-29T13:39:19;23.43;;;11.20;;
69569;SDS011;56781;42.292;23.146;2022-12-29T13:41:53;28.40;;;11.50;;
69569;SDS011;56781;42.292;23.146;2022-12-29T13:44:31;20.23;;;9.48;;
69569;SDS011;56781;42.292;23.146;2022-12-29T13:47:36;21.23;;;9.70;;
69569;SDS011;56781;42.292;23.146;2022-12-29T13:50:18;19.50;;;9.30;;
69569;SDS011;56781;42.292;23.146;2022-12-29T13:55:45;24.35;;;11.63;;
69569;SDS011;56781;42.292;23.146;2022-12-29T13:58:42;27.45;;;12.70;;
69569;SDS011;56781;42.292;23.146;2022-12-29T14:03:59;30.30;;;15.63;;
69569;SDS011;56781;42.292;23.146;2022-12-29T14:06:33;36.77;;;16.57;;
69569;SDS011;56781;42.292;23.146;2022-12-29T14:09:54;32.88;;;17.10;;
69569;SDS011;56781;42.292;23.146;2022-12-29T14:15:13;24.00;;;13.10;;
69569;SDS011;56781;42.292;23.146;2022-12-29T14:17:59;24.45;;;12.20;;
69569;SDS011;56781;42.292;23.146;2022-12-29T14:20:37;27.73;;;12.97;;
69569;SDS011;56781;42.292;23.146;2022-12-29T14:28:41;25.98;;;11.23;;
69569;SDS011;56781;42.292;23.146;2022-12-29T14:36:36;21.88;;;12.40;;
69569;SDS011;56781;42.292;23.146;2022-12-29T14:39:26;21.95;;;11.68;;
69569;SDS011;56781;42.292;23.146;2022-12-29T14:42:05;24.95;;;12.20;;
69569;SDS011;56781;42.292;23.146;2022-12-29T14:44:51;24.17;;;12.57;;
69569;SDS011;56781;42.292;23.146;2022-12-29T14:55:30;34.72;;;14.95;;
69569;SDS011;56781;42.292;23.146;2022-12-29T14:58:06;27.80;;;13.25;;
69569;SDS011;56781;42.292;23.146;2022-12-29T15:00:42;26.93;;;13.67;;
69569;SDS011;56781;42.292;23.146;2022-12-29T15:06:04;29.15;;;14.25;;
69569;SDS011;56781;42.292;23.146;2022-12-29T15:08:59;25.85;;;13.48;;
69569;SDS011;56781;42.292;23.146;2022-12-29T15:14:23;32.27;;;14.63;;
69569;SDS011;56781;42.292;23.146;2022-12-29T15:16:56;33.03;;;14.77;;
69569;SDS011;56781;42.292;23.146;2022-12-29T15:19:24;41.70;;;15.60;;
69569;SDS011;56781;42.292;23.146;2022-12-29T15:21:53;29.10;;;13.43;;
69569;SDS011;56781;42.292;23.146;2022-12-29T15:24:22;27.42;;;15.73;;
69569;SDS011;56781;42.292;23.146;2022-12-29T15:26:51;25.20;;;14.03;;
69569;SDS011;56781;42.292;23.146;2022-12-29T15:32:15;24.08;;;12.55;;
69569;SDS011;56781;42.292;23.146;2022-12-29T15:34:44;19.63;;;10.07;;
69569;SDS011;56781;42.292;23.146;2022-12-29T15:37:19;29.27;;;16.05;;
69569;SDS011;56781;42.292;23.146;2022-12-29T15:39:49;30.37;;;12.77;;
69569;SDS011;56781;42.292;23.146;2022-12-29T15:42:29;18.60;;;9.07;;
69569;SDS011;56781;42.292;23.146;2022-12-29T15:45:05;27.50;;;12.02;;
69569;SDS011;56781;42.292;23.146;2022-12-29T15:47:37;106.30;;;42.90;;
69569;SDS011;56781;42.292;23.146;2022-12-29T15:50:22;50.03;;;22.92;;
69569;SDS011;56781;42.292;23.146;2022-12-29T15:52:53;43.90;;;20.80;;
69569;SDS011;56781;42.292;23.146;2022-12-29T15:55:30;35.35;;;16.90;;
69569;SDS011;56781;42.292;23.146;2022-12-29T15:58:01;212.90;;;56.88;;
69569;SDS011;56781;42.292;23.146;2022-12-29T16:00:34;230.80;;;62.28;;
69569;SDS011;56781;42.292;23.146;2022-12-29T16:03:04;57.53;;;19.15;;
69569;SDS011;56781;42.292;23.146;2022-12-29T16:05:39;27.60;;;12.63;;
69569;SDS011;56781;42.292;23.146;2022-12-29T16:11:00;122.32;;;41.47;;
69569;SDS011;56781;42.292;23.146;2022-12-29T16:13:34;35.90;;;16.08;;
69569;SDS011;56781;42.292;23.146;2022-12-29T16:16:13;33.83;;;14.52;;
69569;SDS011;56781;42.292;23.146;2022-12-29T16:18:44;35.37;;;15.40;;
69569;SDS011;56781;42.292;23.146;2022-12-29T16:21:22;35.92;;;16.67;;
69569;SDS011;56781;42.292;23.146;2022-12-29T16:23:53;41.00;;;19.02;;
69569;SDS011;56781;42.292;23.146;2022-12-29T16:26:23;36.42;;;17.75;;
69569;SDS011;56781;42.292;23.146;2022-12-29T16:28:53;34.25;;;17.10;;
69569;SDS011;56781;42.292;23.146;2022-12-29T16:31:24;39.70;;;17.83;;
69569;SDS011;56781;42.292;23.146;2022-12-29T16:34:13;35.50;;;17.85;;
69569;SDS011;56781;42.292;23.146;2022-12-29T16:36:54;43.53;;;22.45;;
69569;SDS011;56781;42.292;23.146;2022-12-29T16:39:28;87.60;;;36.92;;
69569;SDS011;56781;42.292;23.146;2022-12-29T16:47:47;32.78;;;14.20;;
69569;SDS011;56781;42.292;23.146;2022-12-29T16:50:24;32.95;;;15.07;;
69569;SDS011;56781;42.292;23.146;2022-12-29T16:52:54;35.70;;;17.08;;
69569;SDS011;56781;42.292;23.146;2022-12-29T16:55:21;65.43;;;28.50;;
69569;SDS011;56781;42.292;23.146;2022-12-29T16:57:49;57.63;;;25.40;;
69569;SDS011;56781;42.292;23.146;2022-12-29T17:00:21;57.88;;;26.67;;
69569;SDS011;56781;42.292;23.146;2022-12-29T17:03:00;62.22;;;30.10;;
69569;SDS011;56781;42.292;23.146;2022-12-29T17:05:29;60.92;;;28.15;;
69569;SDS011;56781;42.292;23.146;2022-12-29T17:07:57;90.97;;;37.45;;
69569;SDS011;56781;42.292;23.146;2022-12-29T17:10:27;104.30;;;37.43;;